DAUG/GHA METAR and TAF weather

Enter ICAO airport designator
Station Type Date Time Source
DAUG METAR 2020/12/05 04:00 UTC NOAA

DAUG 050400Z 20005KT CAVOK 11/M02 Q1003


Station Type Date Time Source
DAUG Decoded METAR 2020/12/05 04:00 UTC NOAA

Ghardaia, Algeria (DAUG) 32-23N 003-49E 450M
Dec 04, 2020 - 11:00 PM EST / 2020.12.05 0400 UTC
Wind: from the SSW (200 degrees) at 6 MPH (5 KT):0
Visibility: greater than 7 mile(s):0
Temperature: 51 F (11 C)
Dew Point: 28 F (-2 C)
Relative Humidity: 40%
Pressure (altimeter): 29.62 in. Hg (1003 hPa)
ob: DAUG 050400Z 20005KT CAVOK 11/M02 Q1003
cycle: 4

Station Type Date Time Source
DAUG TAF 2020/12/05 06:00 UTC NOAA

TAF DAUG 050500Z 0506/0606 22010KT CAVOK
BECMG 0510/0512 34015KT PROB40
TEMPO 0510/0516 34015G25KT 4000 DRSA

Example: see airport list